sensor_id;sensor_type;location;lat;lon;timestamp;P1;durP1;ratioP1;P2;durP2;ratioP2
63087;SDS011;49173;43.164;27.786;2023-06-19T00:00:11;10.93;;;4.10;;
63087;SDS011;49173;43.164;27.786;2023-06-19T00:02:41;6.88;;;3.78;;
63087;SDS011;49173;43.164;27.786;2023-06-19T00:05:08;8.65;;;3.42;;
63087;SDS011;49173;43.164;27.786;2023-06-19T00:07:38;8.93;;;3.47;;
63087;SDS011;49173;43.164;27.786;2023-06-19T00:10:04;6.85;;;3.40;;
63087;SDS011;49173;43.164;27.786;2023-06-19T00:12:31;4.55;;;3.35;;
63087;SDS011;49173;43.164;27.786;2023-06-19T00:14:57;7.55;;;3.80;;
63087;SDS011;49173;43.164;27.786;2023-06-19T00:17:23;5.55;;;3.40;;
63087;SDS011;49173;43.164;27.786;2023-06-19T00:19:51;5.32;;;2.83;;
63087;SDS011;49173;43.164;27.786;2023-06-19T00:22:18;4.53;;;3.17;;
63087;SDS011;49173;43.164;27.786;2023-06-19T00:24:44;7.43;;;3.35;;
63087;SDS011;49173;43.164;27.786;2023-06-19T00:27:10;6.47;;;3.35;;
63087;SDS011;49173;43.164;27.786;2023-06-19T00:29:35;7.07;;;3.50;;
63087;SDS011;49173;43.164;27.786;2023-06-19T00:32:02;7.00;;;3.47;;
63087;SDS011;49173;43.164;27.786;2023-06-19T00:34:28;10.38;;;3.60;;
63087;SDS011;49173;43.164;27.786;2023-06-19T00:36:55;7.00;;;3.50;;
63087;SDS011;49173;43.164;27.786;2023-06-19T00:39:23;8.18;;;3.70;;
63087;SDS011;49173;43.164;27.786;2023-06-19T00:41:54;9.30;;;3.97;;
63087;SDS011;49173;43.164;27.786;2023-06-19T00:44:20;7.13;;;3.70;;
63087;SDS011;49173;43.164;27.786;2023-06-19T00:46:46;7.28;;;3.78;;
63087;SDS011;49173;43.164;27.786;2023-06-19T00:49:13;10.30;;;3.95;;
63087;SDS011;49173;43.164;27.786;2023-06-19T00:51:40;7.95;;;3.42;;
63087;SDS011;49173;43.164;27.786;2023-06-19T00:54:06;5.90;;;3.65;;
63087;SDS011;49173;43.164;27.786;2023-06-19T00:56:32;7.70;;;4.05;;
63087;SDS011;49173;43.164;27.786;2023-06-19T00:59:02;6.60;;;3.83;;
63087;SDS011;49173;43.164;27.786;2023-06-19T01:01:31;9.13;;;3.67;;
63087;SDS011;49173;43.164;27.786;2023-06-19T01:03:57;14.52;;;4.50;;
63087;SDS011;49173;43.164;27.786;2023-06-19T01:06:24;6.50;;;3.45;;
63087;SDS011;49173;43.164;27.786;2023-06-19T01:09:07;7.82;;;3.65;;
63087;SDS011;49173;43.164;27.786;2023-06-19T01:11:47;8.25;;;3.65;;
63087;SDS011;49173;43.164;27.786;2023-06-19T01:14:25;7.63;;;3.70;;
63087;SDS011;49173;43.164;27.786;2023-06-19T01:16:56;17.05;;;4.05;;
63087;SDS011;49173;43.164;27.786;2023-06-19T01:19:22;7.35;;;3.55;;
63087;SDS011;49173;43.164;27.786;2023-06-19T01:21:49;13.20;;;4.03;;
63087;SDS011;49173;43.164;27.786;2023-06-19T01:24:15;9.68;;;3.92;;
63087;SDS011;49173;43.164;27.786;2023-06-19T01:26:41;8.98;;;4.32;;
63087;SDS011;49173;43.164;27.786;2023-06-19T01:29:14;10.27;;;3.85;;
63087;SDS011;49173;43.164;27.786;2023-06-19T01:34:11;9.38;;;4.32;;
63087;SDS011;49173;43.164;27.786;2023-06-19T01:36:41;10.07;;;5.00;;
63087;SDS011;49173;43.164;27.786;2023-06-19T01:39:08;13.63;;;5.15;;
63087;SDS011;49173;43.164;27.786;2023-06-19T01:41:36;6.53;;;4.35;;
63087;SDS011;49173;43.164;27.786;2023-06-19T01:44:04;15.07;;;5.05;;
63087;SDS011;49173;43.164;27.786;2023-06-19T01:46:30;11.70;;;4.88;;
63087;SDS011;49173;43.164;27.786;2023-06-19T01:48:56;9.82;;;4.68;;
63087;SDS011;49173;43.164;27.786;2023-06-19T01:51:23;9.50;;;5.03;;
63087;SDS011;49173;43.164;27.786;2023-06-19T01:53:49;8.52;;;5.22;;
63087;SDS011;49173;43.164;27.786;2023-06-19T01:56:15;8.60;;;5.07;;
63087;SDS011;49173;43.164;27.786;2023-06-19T01:58:41;12.50;;;5.30;;
63087;SDS011;49173;43.164;27.786;2023-06-19T02:01:07;11.02;;;5.15;;
63087;SDS011;49173;43.164;27.786;2023-06-19T02:03:33;8.38;;;5.15;;
63087;SDS011;49173;43.164;27.786;2023-06-19T02:05:59;9.88;;;5.85;;
63087;SDS011;49173;43.164;27.786;2023-06-19T02:08:24;10.55;;;5.75;;
63087;SDS011;49173;43.164;27.786;2023-06-19T02:10:50;10.23;;;6.50;;
63087;SDS011;49173;43.164;27.786;2023-06-19T02:13:16;8.75;;;5.75;;
63087;SDS011;49173;43.164;27.786;2023-06-19T02:15:42;10.88;;;6.40;;
63087;SDS011;49173;43.164;27.786;2023-06-19T02:18:08;12.95;;;5.93;;
63087;SDS011;49173;43.164;27.786;2023-06-19T02:20:34;10.30;;;6.10;;
63087;SDS011;49173;43.164;27.786;2023-06-19T02:23:00;11.38;;;5.57;;
63087;SDS011;49173;43.164;27.786;2023-06-19T02:25:26;11.63;;;6.22;;
63087;SDS011;49173;43.164;27.786;2023-06-19T02:27:51;10.43;;;5.80;;
63087;SDS011;49173;43.164;27.786;2023-06-19T02:30:17;9.02;;;5.43;;
63087;SDS011;49173;43.164;27.786;2023-06-19T02:32:43;9.45;;;6.07;;
63087;SDS011;49173;43.164;27.786;2023-06-19T02:35:09;12.05;;;5.80;;
63087;SDS011;49173;43.164;27.786;2023-06-19T02:37:37;13.60;;;5.97;;
63087;SDS011;49173;43.164;27.786;2023-06-19T02:40:03;9.55;;;6.30;;
63087;SDS011;49173;43.164;27.786;2023-06-19T02:42:30;11.55;;;5.90;;
63087;SDS011;49173;43.164;27.786;2023-06-19T02:44:56;15.15;;;5.90;;
63087;SDS011;49173;43.164;27.786;2023-06-19T02:47:31;12.80;;;6.53;;
63087;SDS011;49173;43.164;27.786;2023-06-19T02:52:24;10.05;;;6.65;;
63087;SDS011;49173;43.164;27.786;2023-06-19T02:54:50;14.00;;;6.78;;
63087;SDS011;49173;43.164;27.786;2023-06-19T02:57:16;14.43;;;6.32;;
63087;SDS011;49173;43.164;27.786;2023-06-19T02:59:42;14.98;;;6.47;;
63087;SDS011;49173;43.164;27.786;2023-06-19T03:02:08;12.00;;;5.70;;
63087;SDS011;49173;43.164;27.786;2023-06-19T03:04:34;10.82;;;5.97;;
63087;SDS011;49173;43.164;27.786;2023-06-19T03:07:00;11.27;;;7.05;;
63087;SDS011;49173;43.164;27.786;2023-06-19T03:09:28;12.35;;;6.65;;
63087;SDS011;49173;43.164;27.786;2023-06-19T03:11:54;14.50;;;6.95;;
63087;SDS011;49173;43.164;27.786;2023-06-19T03:14:23;10.25;;;6.28;;
63087;SDS011;49173;43.164;27.786;2023-06-19T03:16:49;8.23;;;5.90;;
63087;SDS011;49173;43.164;27.786;2023-06-19T03:19:15;10.50;;;6.15;;
63087;SDS011;49173;43.164;27.786;2023-06-19T03:21:41;11.27;;;6.18;;
63087;SDS011;49173;43.164;27.786;2023-06-19T03:24:07;11.95;;;7.50;;
63087;SDS011;49173;43.164;27.786;2023-06-19T03:26:33;12.98;;;7.53;;
63087;SDS011;49173;43.164;27.786;2023-06-19T03:28:59;15.18;;;8.25;;
63087;SDS011;49173;43.164;27.786;2023-06-19T03:31:25;11.95;;;8.23;;
63087;SDS011;49173;43.164;27.786;2023-06-19T03:33:51;13.85;;;8.52;;
63087;SDS011;49173;43.164;27.786;2023-06-19T03:36:17;20.75;;;7.63;;
63087;SDS011;49173;43.164;27.786;2023-06-19T03:38:42;11.90;;;6.80;;
63087;SDS011;49173;43.164;27.786;2023-06-19T03:41:08;14.95;;;7.68;;
63087;SDS011;49173;43.164;27.786;2023-06-19T03:43:34;12.07;;;7.70;;
63087;SDS011;49173;43.164;27.786;2023-06-19T03:46:00;14.88;;;7.70;;
63087;SDS011;49173;43.164;27.786;2023-06-19T03:48:25;12.20;;;7.55;;
63087;SDS011;49173;43.164;27.786;2023-06-19T03:50:51;15.20;;;7.57;;
63087;SDS011;49173;43.164;27.786;2023-06-19T03:53:18;10.93;;;7.38;;
63087;SDS011;49173;43.164;27.786;2023-06-19T03:55:43;10.38;;;7.35;;
63087;SDS011;49173;43.164;27.786;2023-06-19T03:58:10;11.27;;;7.18;;
63087;SDS011;49173;43.164;27.786;2023-06-19T04:00:35;11.95;;;6.95;;
63087;SDS011;49173;43.164;27.786;2023-06-19T04:03:01;9.73;;;6.95;;
63087;SDS011;49173;43.164;27.786;2023-06-19T04:05:27;10.75;;;6.72;;
63087;SDS011;49173;43.164;27.786;2023-06-19T04:07:53;14.13;;;7.32;;
63087;SDS011;49173;43.164;27.786;2023-06-19T04:10:18;12.13;;;7.90;;
63087;SDS011;49173;43.164;27.786;2023-06-19T04:12:44;13.98;;;8.52;;
63087;SDS011;49173;43.164;27.786;2023-06-19T04:15:11;15.93;;;8.57;;
63087;SDS011;49173;43.164;27.786;2023-06-19T04:17:37;10.18;;;7.43;;
63087;SDS011;49173;43.164;27.786;2023-06-19T04:20:03;13.90;;;7.60;;
63087;SDS011;49173;43.164;27.786;2023-06-19T04:22:39;10.38;;;7.15;;
63087;SDS011;49173;43.164;27.786;2023-06-19T04:25:07;8.02;;;6.95;;
63087;SDS011;49173;43.164;27.786;2023-06-19T04:27:34;10.18;;;7.25;;
63087;SDS011;49173;43.164;27.786;2023-06-19T04:30:00;11.18;;;6.53;;
63087;SDS011;49173;43.164;27.786;2023-06-19T04:32:27;8.27;;;6.03;;
63087;SDS011;49173;43.164;27.786;2023-06-19T04:34:53;12.00;;;7.13;;
63087;SDS011;49173;43.164;27.786;2023-06-19T04:37:19;8.75;;;6.57;;
63087;SDS011;49173;43.164;27.786;2023-06-19T04:39:48;13.93;;;6.75;;
63087;SDS011;49173;43.164;27.786;2023-06-19T04:42:16;9.35;;;6.15;;
63087;SDS011;49173;43.164;27.786;2023-06-19T04:44:46;9.43;;;6.25;;
63087;SDS011;49173;43.164;27.786;2023-06-19T04:47:13;7.38;;;5.93;;
63087;SDS011;49173;43.164;27.786;2023-06-19T04:49:40;7.30;;;5.43;;
63087;SDS011;49173;43.164;27.786;2023-06-19T04:52:06;10.23;;;5.93;;
63087;SDS011;49173;43.164;27.786;2023-06-19T04:54:32;10.75;;;5.75;;
63087;SDS011;49173;43.164;27.786;2023-06-19T04:56:58;10.57;;;5.38;;
63087;SDS011;49173;43.164;27.786;2023-06-19T04:59:24;7.72;;;5.70;;
63087;SDS011;49173;43.164;27.786;2023-06-19T05:01:50;9.65;;;4.45;;
63087;SDS011;49173;43.164;27.786;2023-06-19T05:04:20;7.18;;;4.68;;
63087;SDS011;49173;43.164;27.786;2023-06-19T05:06:48;10.63;;;4.93;;
63087;SDS011;49173;43.164;27.786;2023-06-19T05:09:15;7.88;;;4.90;;
63087;SDS011;49173;43.164;27.786;2023-06-19T05:11:40;8.32;;;4.80;;
63087;SDS011;49173;43.164;27.786;2023-06-19T05:14:06;8.90;;;4.47;;
63087;SDS011;49173;43.164;27.786;2023-06-19T05:16:33;15.15;;;5.22;;
63087;SDS011;49173;43.164;27.786;2023-06-19T05:18:59;5.88;;;4.30;;
63087;SDS011;49173;43.164;27.786;2023-06-19T05:21:25;5.72;;;3.80;;
63087;SDS011;49173;43.164;27.786;2023-06-19T05:23:51;7.95;;;4.57;;
63087;SDS011;49173;43.164;27.786;2023-06-19T05:26:18;7.65;;;3.45;;
63087;SDS011;49173;43.164;27.786;2023-06-19T05:28:45;6.93;;;3.55;;
63087;SDS011;49173;43.164;27.786;2023-06-19T05:31:13;5.13;;;3.95;;
63087;SDS011;49173;43.164;27.786;2023-06-19T05:33:40;5.45;;;3.47;;
63087;SDS011;49173;43.164;27.786;2023-06-19T05:36:06;7.20;;;3.40;;
63087;SDS011;49173;43.164;27.786;2023-06-19T05:38:32;5.18;;;3.20;;
63087;SDS011;49173;43.164;27.786;2023-06-19T05:40:58;5.18;;;3.10;;
63087;SDS011;49173;43.164;27.786;2023-06-19T05:43:25;4.38;;;3.15;;
63087;SDS011;49173;43.164;27.786;2023-06-19T05:45:52;6.65;;;3.35;;
63087;SDS011;49173;43.164;27.786;2023-06-19T05:48:19;6.63;;;3.05;;
63087;SDS011;49173;43.164;27.786;2023-06-19T05:50:45;8.32;;;3.28;;
63087;SDS011;49173;43.164;27.786;2023-06-19T05:53:11;5.13;;;3.00;;
63087;SDS011;49173;43.164;27.786;2023-06-19T05:55:37;6.47;;;3.22;;
63087;SDS011;49173;43.164;27.786;2023-06-19T05:58:04;5.25;;;2.90;;
63087;SDS011;49173;43.164;27.786;2023-06-19T06:00:30;4.63;;;2.67;;
63087;SDS011;49173;43.164;27.786;2023-06-19T06:02:57;4.60;;;2.55;;
63087;SDS011;49173;43.164;27.786;2023-06-19T06:05:27;3.70;;;2.38;;
63087;SDS011;49173;43.164;27.786;2023-06-19T06:07:53;8.93;;;2.75;;
63087;SDS011;49173;43.164;27.786;2023-06-19T06:10:21;8.70;;;2.55;;
63087;SDS011;49173;43.164;27.786;2023-06-19T06:12:47;6.57;;;2.83;;
63087;SDS011;49173;43.164;27.786;2023-06-19T06:15:16;7.38;;;3.20;;
63087;SDS011;49173;43.164;27.786;2023-06-19T06:17:42;5.55;;;2.70;;
63087;SDS011;49173;43.164;27.786;2023-06-19T06:20:08;5.85;;;2.75;;
63087;SDS011;49173;43.164;27.786;2023-06-19T06:22:36;5.88;;;2.58;;
63087;SDS011;49173;43.164;27.786;2023-06-19T06:25:06;8.65;;;2.70;;
63087;SDS011;49173;43.164;27.786;2023-06-19T06:27:32;3.85;;;2.35;;
63087;SDS011;49173;43.164;27.786;2023-06-19T06:29:58;4.28;;;2.33;;
63087;SDS011;49173;43.164;27.786;2023-06-19T06:32:24;5.70;;;2.75;;
63087;SDS011;49173;43.164;27.786;2023-06-19T06:34:51;9.27;;;2.50;;
63087;SDS011;49173;43.164;27.786;2023-06-19T06:37:17;4.45;;;2.70;;
63087;SDS011;49173;43.164;27.786;2023-06-19T06:39:48;4.85;;;2.22;;
63087;SDS011;49173;43.164;27.786;2023-06-19T06:42:15;6.70;;;2.30;;
63087;SDS011;49173;43.164;27.786;2023-06-19T06:44:41;6.78;;;2.78;;
63087;SDS011;49173;43.164;27.786;2023-06-19T06:47:07;3.20;;;2.20;;
63087;SDS011;49173;43.164;27.786;2023-06-19T06:49:33;6.78;;;2.83;;
63087;SDS011;49173;43.164;27.786;2023-06-19T06:52:02;4.72;;;2.80;;
63087;SDS011;49173;43.164;27.786;2023-06-19T06:54:32;4.55;;;2.53;;
63087;SDS011;49173;43.164;27.786;2023-06-19T06:56:59;3.50;;;2.35;;
63087;SDS011;49173;43.164;27.786;2023-06-19T06:59:26;5.57;;;2.42;;
63087;SDS011;49173;43.164;27.786;2023-06-19T07:01:55;6.85;;;2.38;;
63087;SDS011;49173;43.164;27.786;2023-06-19T07:04:21;3.40;;;2.13;;
63087;SDS011;49173;43.164;27.786;2023-06-19T07:06:48;4.07;;;2.50;;
63087;SDS011;49173;43.164;27.786;2023-06-19T07:09:14;5.80;;;2.28;;
63087;SDS011;49173;43.164;27.786;2023-06-19T07:11:40;5.13;;;2.38;;
63087;SDS011;49173;43.164;27.786;2023-06-19T07:14:06;6.32;;;2.58;;
63087;SDS011;49173;43.164;27.786;2023-06-19T07:16:32;6.60;;;2.40;;
63087;SDS011;49173;43.164;27.786;2023-06-19T07:18:58;3.80;;;2.20;;
63087;SDS011;49173;43.164;27.786;2023-06-19T07:21:24;5.50;;;2.00;;
63087;SDS011;49173;43.164;27.786;2023-06-19T07:23:55;4.53;;;2.22;;
63087;SDS011;49173;43.164;27.786;2023-06-19T07:26:28;4.93;;;2.35;;
63087;SDS011;49173;43.164;27.786;2023-06-19T07:29:02;4.55;;;2.50;;
63087;SDS011;49173;43.164;27.786;2023-06-19T07:31:31;4.10;;;2.47;;
63087;SDS011;49173;43.164;27.786;2023-06-19T07:34:00;6.80;;;2.20;;
63087;SDS011;49173;43.164;27.786;2023-06-19T07:36:29;3.40;;;2.45;;
63087;SDS011;49173;43.164;27.786;2023-06-19T07:41:26;4.78;;;2.22;;
63087;SDS011;49173;43.164;27.786;2023-06-19T07:44:01;4.18;;;2.20;;
63087;SDS011;49173;43.164;27.786;2023-06-19T07:46:30;4.80;;;2.30;;
63087;SDS011;49173;43.164;27.786;2023-06-19T07:49:19;5.97;;;2.60;;
63087;SDS011;49173;43.164;27.786;2023-06-19T07:51:53;5.97;;;2.60;;
63087;SDS011;49173;43.164;27.786;2023-06-19T07:54:20;3.65;;;2.50;;
63087;SDS011;49173;43.164;27.786;2023-06-19T07:59:18;2.80;;;1.98;;
63087;SDS011;49173;43.164;27.786;2023-06-19T08:01:53;3.20;;;2.42;;
63087;SDS011;49173;43.164;27.786;2023-06-19T08:04:25;5.80;;;2.63;;
63087;SDS011;49173;43.164;27.786;2023-06-19T08:06:54;4.65;;;3.00;;
63087;SDS011;49173;43.164;27.786;2023-06-19T08:09:27;3.13;;;2.30;;
63087;SDS011;49173;43.164;27.786;2023-06-19T08:12:00;4.85;;;2.50;;
63087;SDS011;49173;43.164;27.786;2023-06-19T08:14:35;4.63;;;2.70;;
63087;SDS011;49173;43.164;27.786;2023-06-19T08:17:04;7.97;;;2.58;;
63087;SDS011;49173;43.164;27.786;2023-06-19T08:19:36;4.80;;;2.53;;
63087;SDS011;49173;43.164;27.786;2023-06-19T08:22:09;3.90;;;2.60;;
63087;SDS011;49173;43.164;27.786;2023-06-19T08:24:38;4.18;;;2.30;;
63087;SDS011;49173;43.164;27.786;2023-06-19T08:29:37;3.58;;;2.58;;
63087;SDS011;49173;43.164;27.786;2023-06-19T08:32:07;3.50;;;2.40;;
63087;SDS011;49173;43.164;27.786;2023-06-19T08:34:36;6.63;;;2.47;;
63087;SDS011;49173;43.164;27.786;2023-06-19T08:37:05;5.57;;;3.00;;
63087;SDS011;49173;43.164;27.786;2023-06-19T08:39:41;3.78;;;2.33;;
63087;SDS011;49173;43.164;27.786;2023-06-19T08:44:34;3.40;;;2.50;;
63087;SDS011;49173;43.164;27.786;2023-06-19T08:47:06;4.88;;;2.72;;
63087;SDS011;49173;43.164;27.786;2023-06-19T08:49:35;6.18;;;2.50;;
63087;SDS011;49173;43.164;27.786;2023-06-19T08:52:10;4.97;;;2.45;;
63087;SDS011;49173;43.164;27.786;2023-06-19T08:57:12;3.75;;;2.63;;
63087;SDS011;49173;43.164;27.786;2023-06-19T08:59:50;3.15;;;2.53;;
63087;SDS011;49173;43.164;27.786;2023-06-19T09:02:22;4.57;;;2.90;;
63087;SDS011;49173;43.164;27.786;2023-06-19T09:04:49;5.22;;;2.83;;
63087;SDS011;49173;43.164;27.786;2023-06-19T09:07:18;3.83;;;2.58;;
63087;SDS011;49173;43.164;27.786;2023-06-19T09:09:47;4.18;;;2.50;;
63087;SDS011;49173;43.164;27.786;2023-06-19T09:12:32;4.10;;;2.35;;
63087;SDS011;49173;43.164;27.786;2023-06-19T09:15:11;5.07;;;2.95;;
63087;SDS011;49173;43.164;27.786;2023-06-19T09:17:44;3.20;;;2.40;;
63087;SDS011;49173;43.164;27.786;2023-06-19T09:20:27;9.88;;;3.10;;
63087;SDS011;49173;43.164;27.786;2023-06-19T09:23:13;3.95;;;2.70;;
63087;SDS011;49173;43.164;27.786;2023-06-19T09:25:53;3.60;;;2.60;;
63087;SDS011;49173;43.164;27.786;2023-06-19T09:28:26;3.53;;;2.70;;
63087;SDS011;49173;43.164;27.786;2023-06-19T09:31:00;5.07;;;2.40;;
63087;SDS011;49173;43.164;27.786;2023-06-19T09:33:33;5.72;;;3.03;;
63087;SDS011;49173;43.164;27.786;2023-06-19T09:36:03;3.58;;;2.42;;
63087;SDS011;49173;43.164;27.786;2023-06-19T09:38:34;3.17;;;2.33;;
63087;SDS011;49173;43.164;27.786;2023-06-19T09:41:31;6.03;;;2.47;;
63087;SDS011;49173;43.164;27.786;2023-06-19T09:44:04;5.50;;;2.60;;
63087;SDS011;49173;43.164;27.786;2023-06-19T09:46:37;6.72;;;2.47;;
63087;SDS011;49173;43.164;27.786;2023-06-19T09:49:12;3.90;;;2.50;;
63087;SDS011;49173;43.164;27.786;2023-06-19T09:51:45;4.32;;;2.78;;
63087;SDS011;49173;43.164;27.786;2023-06-19T09:54:19;6.60;;;2.70;;
63087;SDS011;49173;43.164;27.786;2023-06-19T09:56:56;6.57;;;2.67;;
63087;SDS011;49173;43.164;27.786;2023-06-19T09:59:27;2.88;;;2.08;;
63087;SDS011;49173;43.164;27.786;2023-06-19T10:01:57;2.97;;;2.00;;
63087;SDS011;49173;43.164;27.786;2023-06-19T10:04:55;3.83;;;2.25;;
63087;SDS011;49173;43.164;27.786;2023-06-19T10:07:26;4.13;;;2.17;;
63087;SDS011;49173;43.164;27.786;2023-06-19T10:12:42;2.90;;;2.28;;
63087;SDS011;49173;43.164;27.786;2023-06-19T10:15:18;3.40;;;2.30;;
63087;SDS011;49173;43.164;27.786;2023-06-19T10:20:37;3.13;;;2.20;;
63087;SDS011;49173;43.164;27.786;2023-06-19T10:23:27;3.40;;;2.00;;
63087;SDS011;49173;43.164;27.786;2023-06-19T10:25:56;3.90;;;2.20;;
63087;SDS011;49173;43.164;27.786;2023-06-19T10:30:54;4.05;;;2.00;;
63087;SDS011;49173;43.164;27.786;2023-06-19T10:33:31;2.70;;;1.90;;
63087;SDS011;49173;43.164;27.786;2023-06-19T10:38:47;3.00;;;2.08;;
63087;SDS011;49173;43.164;27.786;2023-06-19T10:41:23;3.20;;;2.10;;
63087;SDS011;49173;43.164;27.786;2023-06-19T10:46:31;4.55;;;2.05;;
63087;SDS011;49173;43.164;27.786;2023-06-19T10:49:10;6.93;;;2.10;;
63087;SDS011;49173;43.164;27.786;2023-06-19T10:51:39;3.33;;;2.05;;
63087;SDS011;49173;43.164;27.786;2023-06-19T10:54:10;3.50;;;2.00;;
63087;SDS011;49173;43.164;27.786;2023-06-19T10:59:06;2.92;;;2.08;;
63087;SDS011;49173;43.164;27.786;2023-06-19T11:01:45;4.55;;;2.22;;
63087;SDS011;49173;43.164;27.786;2023-06-19T11:04:16;3.80;;;2.10;;
63087;SDS011;49173;43.164;27.786;2023-06-19T11:06:45;3.33;;;2.40;;
63087;SDS011;49173;43.164;27.786;2023-06-19T11:09:14;3.67;;;2.38;;
63087;SDS011;49173;43.164;27.786;2023-06-19T11:11:49;4.10;;;2.42;;
63087;SDS011;49173;43.164;27.786;2023-06-19T11:14:17;5.30;;;2.47;;
63087;SDS011;49173;43.164;27.786;2023-06-19T11:16:56;4.47;;;2.50;;
63087;SDS011;49173;43.164;27.786;2023-06-19T11:19:29;3.15;;;2.17;;
63087;SDS011;49173;43.164;27.786;2023-06-19T11:21:59;3.30;;;2.38;;
63087;SDS011;49173;43.164;27.786;2023-06-19T11:24:31;3.80;;;2.38;;
63087;SDS011;49173;43.164;27.786;2023-06-19T11:27:00;4.07;;;2.40;;
63087;SDS011;49173;43.164;27.786;2023-06-19T11:29:31;4.32;;;2.22;;
63087;SDS011;49173;43.164;27.786;2023-06-19T11:32:06;3.97;;;2.22;;
63087;SDS011;49173;43.164;27.786;2023-06-19T11:34:40;3.20;;;2.38;;
63087;SDS011;49173;43.164;27.786;2023-06-19T11:37:16;3.90;;;2.42;;
63087;SDS011;49173;43.164;27.786;2023-06-19T11:39:46;3.78;;;2.20;;
63087;SDS011;49173;43.164;27.786;2023-06-19T11:42:22;4.25;;;2.50;;
63087;SDS011;49173;43.164;27.786;2023-06-19T11:47:42;3.35;;;2.42;;
63087;SDS011;49173;43.164;27.786;2023-06-19T11:50:15;4.18;;;2.13;;
63087;SDS011;49173;43.164;27.786;2023-06-19T11:52:46;3.95;;;2.40;;
63087;SDS011;49173;43.164;27.786;2023-06-19T11:55:19;3.55;;;2.50;;
63087;SDS011;49173;43.164;27.786;2023-06-19T11:58:05;6.80;;;2.80;;
63087;SDS011;49173;43.164;27.786;2023-06-19T12:00:35;5.95;;;2.65;;
63087;SDS011;49173;43.164;27.786;2023-06-19T12:03:05;4.90;;;2.40;;
63087;SDS011;49173;43.164;27.786;2023-06-19T12:05:38;8.52;;;2.55;;
63087;SDS011;49173;43.164;27.786;2023-06-19T12:08:13;3.80;;;2.50;;
63087;SDS011;49173;43.164;27.786;2023-06-19T12:10:45;3.88;;;2.58;;
63087;SDS011;49173;43.164;27.786;2023-06-19T12:13:17;5.38;;;2.50;;
63087;SDS011;49173;43.164;27.786;2023-06-19T12:15:49;4.03;;;2.55;;
63087;SDS011;49173;43.164;27.786;2023-06-19T12:18:17;4.85;;;2.30;;
63087;SDS011;49173;43.164;27.786;2023-06-19T12:20:43;3.83;;;2.47;;
63087;SDS011;49173;43.164;27.786;2023-06-19T12:23:13;4.63;;;2.38;;
63087;SDS011;49173;43.164;27.786;2023-06-19T12:25:39;3.88;;;2.28;;
63087;SDS011;49173;43.164;27.786;2023-06-19T12:28:08;4.07;;;2.45;;
63087;SDS011;49173;43.164;27.786;2023-06-19T12:30:38;5.25;;;2.30;;
63087;SDS011;49173;43.164;27.786;2023-06-19T12:33:04;3.20;;;2.30;;
63087;SDS011;49173;43.164;27.786;2023-06-19T12:35:33;3.95;;;2.10;;
63087;SDS011;49173;43.164;27.786;2023-06-19T12:38:00;5.55;;;2.53;;
63087;SDS011;49173;43.164;27.786;2023-06-19T12:40:29;2.92;;;2.28;;
63087;SDS011;49173;43.164;27.786;2023-06-19T12:42:57;3.67;;;2.10;;
63087;SDS011;49173;43.164;27.786;2023-06-19T12:45:26;5.97;;;2.40;;
63087;SDS011;49173;43.164;27.786;2023-06-19T12:47:51;2.97;;;2.03;;
63087;SDS011;49173;43.164;27.786;2023-06-19T12:50:18;3.80;;;2.42;;
63087;SDS011;49173;43.164;27.786;2023-06-19T12:52:50;4.55;;;2.13;;
63087;SDS011;49173;43.164;27.786;2023-06-19T12:55:17;3.78;;;2.78;;
63087;SDS011;49173;43.164;27.786;2023-06-19T12:57:46;4.35;;;2.15;;
63087;SDS011;49173;43.164;27.786;2023-06-19T13:00:18;4.07;;;2.20;;
63087;SDS011;49173;43.164;27.786;2023-06-19T13:02:47;5.03;;;2.30;;
63087;SDS011;49173;43.164;27.786;2023-06-19T13:05:17;4.78;;;2.38;;
63087;SDS011;49173;43.164;27.786;2023-06-19T13:07:43;4.32;;;2.58;;
63087;SDS011;49173;43.164;27.786;2023-06-19T13:10:13;4.50;;;2.25;;
63087;SDS011;49173;43.164;27.786;2023-06-19T13:12:42;8.48;;;2.70;;
63087;SDS011;49173;43.164;27.786;2023-06-19T13:15:11;6.03;;;2.50;;
63087;SDS011;49173;43.164;27.786;2023-06-19T13:17:44;3.40;;;2.63;;
63087;SDS011;49173;43.164;27.786;2023-06-19T13:20:13;3.20;;;2.38;;
63087;SDS011;49173;43.164;27.786;2023-06-19T13:22:40;3.85;;;2.40;;
63087;SDS011;49173;43.164;27.786;2023-06-19T13:25:15;4.32;;;2.30;;
63087;SDS011;49173;43.164;27.786;2023-06-19T13:27:48;4.38;;;2.50;;
63087;SDS011;49173;43.164;27.786;2023-06-19T13:30:19;3.03;;;2.30;;
63087;SDS011;49173;43.164;27.786;2023-06-19T13:32:47;5.35;;;2.42;;
63087;SDS011;49173;43.164;27.786;2023-06-19T13:37:47;3.60;;;2.38;;
63087;SDS011;49173;43.164;27.786;2023-06-19T13:40:19;5.35;;;2.55;;
63087;SDS011;49173;43.164;27.786;2023-06-19T13:42:49;7.88;;;2.42;;
63087;SDS011;49173;43.164;27.786;2023-06-19T13:45:18;4.68;;;2.53;;
63087;SDS011;49173;43.164;27.786;2023-06-19T13:50:14;3.03;;;2.25;;
63087;SDS011;49173;43.164;27.786;2023-06-19T13:52:49;4.68;;;2.53;;
63087;SDS011;49173;43.164;27.786;2023-06-19T13:55:20;3.60;;;2.63;;
63087;SDS011;49173;43.164;27.786;2023-06-19T13:57:55;4.32;;;2.53;;
63087;SDS011;49173;43.164;27.786;2023-06-19T14:00:24;4.10;;;2.97;;
63087;SDS011;49173;43.164;27.786;2023-06-19T14:05:28;3.50;;;2.63;;
63087;SDS011;49173;43.164;27.786;2023-06-19T14:08:04;3.35;;;2.53;;
63087;SDS011;49173;43.164;27.786;2023-06-19T14:10:42;6.60;;;2.90;;
63087;SDS011;49173;43.164;27.786;2023-06-19T14:13:20;5.93;;;2.83;;
63087;SDS011;49173;43.164;27.786;2023-06-19T14:15:49;7.38;;;3.33;;
63087;SDS011;49173;43.164;27.786;2023-06-19T14:18:21;5.90;;;3.30;;
63087;SDS011;49173;43.164;27.786;2023-06-19T14:20:53;7.10;;;2.97;;
63087;SDS011;49173;43.164;27.786;2023-06-19T14:23:26;6.93;;;3.38;;
63087;SDS011;49173;43.164;27.786;2023-06-19T14:25:57;11.23;;;3.65;;
63087;SDS011;49173;43.164;27.786;2023-06-19T14:28:28;7.30;;;3.40;;
63087;SDS011;49173;43.164;27.786;2023-06-19T14:31:12;5.97;;;3.60;;
63087;SDS011;49173;43.164;27.786;2023-06-19T14:33:53;12.43;;;3.70;;
63087;SDS011;49173;43.164;27.786;2023-06-19T14:36:25;5.40;;;3.92;;
63087;SDS011;49173;43.164;27.786;2023-06-19T14:38:52;8.25;;;3.60;;
63087;SDS011;49173;43.164;27.786;2023-06-19T14:41:27;6.80;;;3.67;;
63087;SDS011;49173;43.164;27.786;2023-06-19T14:44:05;9.18;;;3.88;;
63087;SDS011;49173;43.164;27.786;2023-06-19T14:46:34;7.68;;;3.72;;
63087;SDS011;49173;43.164;27.786;2023-06-19T14:49:11;5.28;;;3.88;;
63087;SDS011;49173;43.164;27.786;2023-06-19T14:51:44;5.47;;;3.80;;
63087;SDS011;49173;43.164;27.786;2023-06-19T14:54:13;7.18;;;3.85;;
63087;SDS011;49173;43.164;27.786;2023-06-19T14:56:45;7.28;;;3.67;;
63087;SDS011;49173;43.164;27.786;2023-06-19T14:59:15;7.63;;;4.15;;
63087;SDS011;49173;43.164;27.786;2023-06-19T15:01:48;7.38;;;3.78;;
63087;SDS011;49173;43.164;27.786;2023-06-19T15:04:23;6.55;;;3.50;;
63087;SDS011;49173;43.164;27.786;2023-06-19T15:09:18;9.63;;;3.72;;
63087;SDS011;49173;43.164;27.786;2023-06-19T15:14:17;5.28;;;3.03;;
63087;SDS011;49173;43.164;27.786;2023-06-19T15:16:49;10.55;;;2.80;;
63087;SDS011;49173;43.164;27.786;2023-06-19T15:19:16;5.70;;;2.80;;
63087;SDS011;49173;43.164;27.786;2023-06-19T15:21:45;5.25;;;2.58;;
63087;SDS011;49173;43.164;27.786;2023-06-19T15:24:15;4.82;;;2.28;;
63087;SDS011;49173;43.164;27.786;2023-06-19T15:26:45;3.53;;;2.47;;
63087;SDS011;49173;43.164;27.786;2023-06-19T15:29:17;5.63;;;2.28;;
63087;SDS011;49173;43.164;27.786;2023-06-19T15:31:46;6.07;;;2.90;;